KRKS/RKS METAR and TAF weather

Enter ICAO airport designator
Station Type Date Time Source
KRKS METAR 2019/06/18 23:54 UTC NOAA

KRKS 182354Z AUTO 29022G38KT 10SM BKN075 18/04 A3009 RMK AO2 PK WND 27038/2347 SLP130 60005 T01780044 10211 20117 55017 TSNO


Station Type Date Time Source
KRKS Decoded METAR 2019/06/18 23:54 UTC NOAA

ROCK SPRINGS-SWEETWATER CO, WY, United States (KRKS) 41-36N 109-03W
Jun 18, 2019 - 07:54 PM EDT / 2019.06.18 2354 UTC
Wind: from the WNW (290 degrees) at 25 MPH (22 KT) gusting to 44 MPH (38 KT):0
Visibility: 10 mile(s):0
Sky conditions: mostly cloudy
Temperature: 64.0 F (17.8 C)
Dew Point: 39.9 F (4.4 C)
Relative Humidity: 41%
Pressure (altimeter): 30.09 in. Hg (1018 hPa)
Pressure tendency: 0.05 inches (1.7 hPa) lower than three hours ago
ob: KRKS 182354Z AUTO 29022G38KT 10SM BKN075 18/04 A3009 RMK AO2 PK WND 27038/2347 SLP130 60005 T01780044 10211 20117 55017 TSNO
cycle: 0

Station Type Date Time Source
KRKS TAF 2019/06/19 00:30 UTC NOAA

TAF
AMD KRKS 190028Z 1900/1924 28022G35KT P6SM VCSH BKN060 BKN100
FM190300 28012KT P6SM SCT060 BKN100
FM190700 25009KT P6SM SCT150
FM191800 27020G30KT P6SM SCT200
FM192100 27030G40KT P6SM SCT200

Example: see airport list